Hauptseite
METAR-TAF:

METAR-TAF

Flughäfen :

Meriden-Markham Municipal Airport

Meriden, Connecticut, Vereinigte Staaten

Breite: 41-30-35N, Länge: 072-49-40W, Höhe: 31 m

Beobachtung

Neuester Wetterbericht von vor 33 Minuten, um 01:53 UTC
Windstille
Temperatur 13°C
Luftfeuchtigkeit 77%
Luftdruck 1024 hPa
Sichtweite: 16.1 km
Himmel klar

METAR: KMMK 250153Z AUTO 00000KT 10SM CLR 13/09 A3025 RMK AO2 SLP242 T01280094

Zeit: 22:26 (02:26 UTC)


TAF: fehlend

Wetterbeobachtungen und Prognosen von mehr als 4000 Flughäfen (METAR und TAF Bericht).

Die verfügbaren Stationen werden durch gelbe und rote Markierungen auf der Karte dargestellt.

Führen Sie die Maus auf sie, um den Namen der Station zu sehen.

Darauf klicken, um die Beobachtung von Wetterbeobachtungen und Prognosen zu sehen.

Um die Karte zu ändern : klicken Sie auf den grünen Tasten mit einem schwarzen Kreuz Zum Vergrößern, auf den grünen Button mit einem Gedankenstrich zu verkleinern, oder auf die grünen Pfeile für benachbarte Karten.


METAR-TAF: